createdAt,value
2022-12-13T00:04:19.261Z,2.50
2022-12-13T00:09:22.648Z,2.58
2022-12-13T00:14:25.203Z,2.40
2022-12-13T00:19:27.855Z,2.20
2022-12-13T00:24:30.435Z,2.30
2022-12-13T00:29:33.585Z,3.20
2022-12-13T00:34:36.119Z,2.85
2022-12-13T00:39:39.191Z,2.65
2022-12-13T00:44:41.751Z,2.58
2022-12-13T00:49:45.398Z,2.38
2022-12-13T00:54:48.190Z,2.30
2022-12-13T00:59:50.907Z,3.03
2022-12-13T01:04:53.372Z,2.50
2022-12-13T01:09:58.137Z,2.22
2022-12-13T01:15:01.199Z,2.30
2022-12-13T01:20:06.342Z,2.28
2022-12-13T01:25:09.082Z,2.80
2022-12-13T01:30:12.123Z,2.67
2022-12-13T01:35:14.988Z,2.97
2022-12-13T01:40:17.719Z,2.60
2022-12-13T01:45:24.614Z,2.90
2022-12-13T01:50:34.034Z,2.72
2022-12-13T01:55:41.667Z,2.63
2022-12-13T02:00:45.793Z,3.22
2022-12-13T02:06:03.480Z,3.20
2022-12-13T02:11:07.517Z,2.92
2022-12-13T02:16:26.745Z,2.95
2022-12-13T02:21:49.938Z,3.28
2022-12-13T02:27:00.921Z,3.60
2022-12-13T02:32:16.689Z,3.23
2022-12-13T02:37:44.334Z,4.18
2022-12-13T02:43:24.639Z,3.85
2022-12-13T02:48:40.623Z,3.70
2022-12-13T02:53:43.726Z,4.20
2022-12-13T02:58:51.826Z,4.30
2022-12-13T03:04:01.196Z,4.47
2022-12-13T03:09:09.520Z,4.47
2022-12-13T03:14:14.384Z,4.05
2022-12-13T03:19:16.954Z,4.20
2022-12-13T03:24:21.474Z,4.07
2022-12-13T03:29:24.938Z,4.38
2022-12-13T03:34:43.282Z,5.13
2022-12-13T03:39:46.548Z,5.13
2022-12-13T03:44:49.250Z,6.63
2022-12-13T03:49:54.317Z,5.28
2022-12-13T03:54:57.202Z,5.10
2022-12-13T03:59:59.812Z,5.22
2022-12-13T04:05:02.385Z,5.30
2022-12-13T04:10:25.992Z,4.82
2022-12-13T04:15:28.985Z,4.70
2022-12-13T04:20:31.676Z,4.70
2022-12-13T04:25:34.544Z,5.22
2022-12-13T04:30:38.129Z,4.72
2022-12-13T04:35:40.771Z,4.63
2022-12-13T04:40:43.454Z,6.10
2022-12-13T04:45:46.085Z,5.45
2022-12-13T04:50:48.684Z,5.93
2022-12-13T04:55:51.311Z,5.28
2022-12-13T05:00:53.854Z,5.10
2022-12-13T05:05:57.028Z,5.50
2022-12-13T05:11:01.747Z,5.68
2022-12-13T05:16:06.889Z,5.38
2022-12-13T05:21:11.910Z,5.55
2022-12-13T05:26:14.464Z,6.30
2022-12-13T05:31:23.504Z,6.38
2022-12-13T05:36:26.999Z,5.75
2022-12-13T05:41:34.447Z,5.63
2022-12-13T05:46:41.497Z,5.85
2022-12-13T05:51:44.306Z,7.47
2022-12-13T05:56:46.848Z,5.43
2022-12-13T06:01:49.536Z,6.13
2022-12-13T06:06:52.604Z,6.70
2022-12-13T06:12:00.939Z,6.63
2022-12-13T06:17:04.547Z,5.88
2022-12-13T06:22:07.169Z,5.65
2022-12-13T06:27:09.883Z,6.15
2022-12-13T06:32:12.893Z,7.40
2022-12-13T06:37:15.467Z,6.22
2022-12-13T06:42:21.737Z,6.30
2022-12-13T06:47:31.438Z,6.40
2022-12-13T06:52:35.147Z,6.35
2022-12-13T06:57:37.774Z,6.40
2022-12-13T07:02:43.550Z,6.03
2022-12-13T07:07:46.173Z,6.47
2022-12-13T07:12:49.301Z,6.85
2022-12-13T07:17:52.388Z,5.68
2022-12-13T07:22:58.730Z,6.53
2022-12-13T07:28:05.640Z,5.70
2022-12-13T07:33:08.508Z,5.80
2022-12-13T07:38:11.958Z,5.78
2022-12-13T07:43:15.964Z,6.88
2022-12-13T07:48:19.595Z,5.15
2022-12-13T07:53:22.489Z,5.30
2022-12-13T07:58:25.027Z,13.63
2022-12-13T08:03:28.693Z,6.43
2022-12-13T08:08:32.095Z,3.97
2022-12-13T08:13:35.256Z,2.70
2022-12-13T08:18:39.681Z,13.07
2022-12-13T08:23:42.817Z,3.40
2022-12-13T08:28:45.344Z,2.40
2022-12-13T08:33:48.779Z,3.60
2022-12-13T08:38:54.715Z,5.05
2022-12-13T08:43:57.229Z,4.63
2022-12-13T08:48:59.902Z,4.38
2022-12-13T08:54:10.807Z,6.10
2022-12-13T08:59:16.028Z,2.75
2022-12-13T09:04:19.329Z,2.70
2022-12-13T09:09:34.402Z,4.15
2022-12-13T09:14:45.329Z,2.80
2022-12-13T09:19:49.026Z,3.90
2022-12-13T09:24:51.903Z,5.70
2022-12-13T09:29:54.574Z,5.22
2022-12-13T09:34:57.263Z,13.25
2022-12-13T09:40:00.214Z,5.82
2022-12-13T09:45:31.638Z,4.82
2022-12-13T09:50:37.448Z,4.80
2022-12-13T09:55:49.126Z,4.47
2022-12-13T10:06:23.350Z,4.60
2022-12-13T10:11:31.879Z,5.10
2022-12-13T10:16:36.261Z,6.18
2022-12-13T10:21:42.958Z,5.68
2022-12-13T10:26:45.446Z,5.43
2022-12-13T10:31:50.731Z,6.15
2022-12-13T10:36:53.661Z,6.18
2022-12-13T10:42:04.642Z,6.63
2022-12-13T10:47:18.104Z,8.98
2022-12-13T10:52:32.167Z,7.13
2022-12-13T10:57:34.924Z,7.40
2022-12-13T11:02:41.729Z,9.07
2022-12-13T11:07:44.732Z,8.18
2022-12-13T11:12:48.108Z,7.70
2022-12-13T11:18:02.676Z,15.57
2022-12-13T11:23:19.664Z,8.18
2022-12-13T11:28:34.411Z,7.93
2022-12-13T11:33:48.037Z,9.38
2022-12-13T11:39:14.291Z,8.20
2022-12-13T11:44:26.162Z,9.07
2022-12-13T11:49:42.618Z,8.25
2022-12-13T11:54:59.208Z,7.82
2022-12-13T12:00:33.882Z,8.00
2022-12-13T12:05:43.088Z,8.25
2022-12-13T12:10:50.049Z,6.80
2022-12-13T12:16:20.856Z,7.25
2022-12-13T12:22:12.892Z,7.30
2022-12-13T12:27:09.309Z,9.20
2022-12-13T12:32:26.987Z,8.20
2022-12-13T12:38:10.646Z,8.20
2022-12-13T12:43:25.888Z,7.10
2022-12-13T12:49:02.124Z,7.22
2022-12-13T12:54:33.096Z,8.73
2022-12-13T13:00:12.187Z,8.18
2022-12-13T13:05:15.150Z,8.13
2022-12-13T13:10:26.084Z,7.88
2022-12-13T13:15:32.545Z,6.97
2022-12-13T13:20:35.793Z,7.55
2022-12-13T13:26:00.215Z,10.18
2022-12-13T13:31:08.906Z,9.38
2022-12-13T13:36:44.754Z,9.93
2022-12-13T13:42:21.095Z,9.82
2022-12-13T13:47:23.827Z,10.07
2022-12-13T13:52:51.192Z,14.40
2022-12-13T13:58:09.308Z,10.18
2022-12-13T14:03:49.893Z,8.77
2022-12-13T14:09:10.539Z,8.73
2022-12-13T14:14:31.324Z,8.45
2022-12-13T14:20:02.445Z,9.95
2022-12-13T14:25:40.344Z,9.57
2022-12-13T14:30:47.717Z,9.48
2022-12-13T14:36:04.372Z,9.90
2022-12-13T14:41:08.934Z,9.73
2022-12-13T14:46:14.861Z,9.52
2022-12-13T14:51:26.151Z,9.18
2022-12-13T14:56:29.329Z,7.20
2022-12-13T15:01:37.755Z,9.27
2022-12-13T15:06:40.711Z,10.65
2022-12-13T15:11:52.947Z,10.32
2022-12-13T15:16:56.957Z,9.13
2022-12-13T15:22:13.239Z,9.93
2022-12-13T15:27:20.947Z,10.95
2022-12-13T15:32:23.623Z,10.23
2022-12-13T15:37:33.163Z,11.40
2022-12-13T15:42:38.587Z,11.27
2022-12-13T15:47:45.838Z,10.63
2022-12-13T15:53:01.633Z,10.85
2022-12-13T15:58:35.220Z,11.40
2022-12-13T16:03:44.728Z,12.48
2022-12-13T16:08:51.574Z,11.73
2022-12-13T16:13:58.353Z,11.95
2022-12-13T16:19:01.464Z,11.43
2022-12-13T16:24:04.168Z,11.07
2022-12-13T16:29:11.764Z,11.52
2022-12-13T16:34:18.201Z,10.57
2022-12-13T16:39:20.891Z,11.23
2022-12-13T16:44:36.089Z,10.88
2022-12-13T16:49:38.659Z,11.07
2022-12-13T16:54:42.877Z,12.43
2022-12-13T16:59:45.968Z,12.02
2022-12-13T17:04:48.624Z,12.52
2022-12-13T17:09:51.246Z,12.65
2022-12-13T17:14:54.433Z,13.00
2022-12-13T17:19:57.120Z,13.45
2022-12-13T17:24:59.749Z,13.75
2022-12-13T17:30:02.521Z,12.93
2022-12-13T17:35:06.364Z,14.27
2022-12-13T17:40:11.068Z,15.02
2022-12-13T17:45:13.687Z,14.65
2022-12-13T17:50:16.411Z,14.60
2022-12-13T17:55:19.029Z,14.90
2022-12-13T18:00:21.593Z,14.90
2022-12-13T18:05:27.624Z,15.80
2022-12-13T18:10:31.283Z,14.43
2022-12-13T18:15:35.261Z,16.20
2022-12-13T18:20:38.498Z,17.50
2022-12-13T18:25:43.161Z,15.95
2022-12-13T18:30:45.885Z,16.45
2022-12-13T18:35:48.643Z,16.63
2022-12-13T18:40:51.258Z,16.80
2022-12-13T18:45:53.954Z,17.17
2022-12-13T18:51:03.730Z,16.85
2022-12-13T18:56:16.196Z,17.17
2022-12-13T19:01:23.014Z,16.70
2022-12-13T19:06:27.570Z,17.25
2022-12-13T19:11:30.415Z,17.25
2022-12-13T19:16:33.518Z,18.35
2022-12-13T19:21:36.112Z,17.45
2022-12-13T19:26:39.145Z,17.80
2022-12-13T19:31:41.814Z,17.25
2022-12-13T19:36:44.393Z,18.20
2022-12-13T19:41:46.916Z,28.60
2022-12-13T19:46:49.534Z,17.63
2022-12-13T19:51:52.254Z,16.83
2022-12-13T19:56:54.995Z,18.42
2022-12-13T20:01:58.040Z,20.20
2022-12-13T20:07:00.694Z,19.38
2022-12-13T20:12:03.372Z,20.00
2022-12-13T20:17:06.196Z,21.30
2022-12-13T20:22:08.757Z,14.85
2022-12-13T20:27:11.583Z,8.43
2022-12-13T20:32:14.407Z,5.57
2022-12-13T20:37:16.973Z,5.07
2022-12-13T20:42:19.726Z,4.35
2022-12-13T20:47:22.326Z,5.10
2022-12-13T20:52:25.692Z,5.13
2022-12-13T20:57:28.178Z,4.20
2022-12-13T21:02:30.785Z,4.28
2022-12-13T21:07:52.119Z,4.82
2022-12-13T21:12:54.817Z,5.65
2022-12-13T21:17:57.766Z,5.32
2022-12-13T21:23:00.264Z,5.32
2022-12-13T21:28:02.753Z,6.10
2022-12-13T21:33:05.562Z,5.88
2022-12-13T21:38:08.035Z,6.13
2022-12-13T21:43:11.151Z,6.65
2022-12-13T21:48:13.947Z,7.65
2022-12-13T21:53:16.493Z,7.57
2022-12-13T21:58:37.518Z,6.93
2022-12-13T22:03:40.065Z,8.80
2022-12-13T22:08:44.285Z,8.88
2022-12-13T22:13:48.344Z,8.75
2022-12-13T22:18:54.278Z,9.15
2022-12-13T22:23:57.312Z,8.10
2022-12-13T22:28:59.955Z,8.18
2022-12-13T22:34:02.534Z,10.23
2022-12-13T22:39:06.884Z,9.50
2022-12-13T22:44:11.902Z,8.98
2022-12-13T22:49:15.199Z,9.95
2022-12-13T22:54:18.031Z,9.57
2022-12-13T22:59:20.537Z,8.98
2022-12-13T23:04:23.419Z,8.50
2022-12-13T23:09:26.044Z,8.63
2022-12-13T23:14:34.356Z,8.80
2022-12-13T23:19:50.078Z,9.77
2022-12-13T23:24:55.496Z,9.48
2022-12-13T23:29:57.996Z,7.78
2022-12-13T23:35:00.575Z,8.00
2022-12-13T23:40:04.890Z,8.05
2022-12-13T23:45:07.956Z,6.40
2022-12-13T23:50:10.614Z,7.33
2022-12-13T23:55:13.147Z,6.27
